Time;durP1;ratioP1;P1;durP2;ratioP2;P2;SDS_P1;SDS_P2;PMS_P1;PMS_P2;Temp;Humidity;BMP_temperature;BMP_pressure;BME280_temperature;BME280_humidity;BME280_pressure;Samples;Min_cycle;Max_cycle;Signal;HPM_P1;HPM_P2
2022/07/08 00:02:22;;;;;;;9.38;2.50;;;;;;;14.64;67.80;101882.69;5029143;28;20068;-70
2022/07/08 00:05:25;;;;;;;11.25;2.50;;;;;;;14.82;66.71;101890.59;5028930;28;20426;-70
2022/07/08 00:08:30;;;;;;;13.80;1.88;;;;;;;14.86;66.79;101889.53;5041848;28;20140;-70
2022/07/08 00:11:34;;;;;;;9.80;1.85;;;;;;;14.63;66.61;101888.84;5048273;28;20043;-70
2022/07/08 00:14:37;;;;;;;8.45;1.70;;;;;;;14.79;67.14;101883.69;5048459;28;20099;-70
2022/07/08 00:17:41;;;;;;;8.70;2.10;;;;;;;14.68;67.60;101891.28;5048242;28;20043;-71
2022/07/08 00:20:44;;;;;;;7.13;1.90;;;;;;;14.63;67.57;101888.84;5049251;28;20055;-70
2022/07/08 00:23:48;;;;;;;5.43;1.30;;;;;;;14.45;68.15;101886.19;5048926;28;20708;-70
2022/07/08 00:26:51;;;;;;;5.93;1.45;;;;;;;14.31;68.16;101882.44;5048488;28;20587;-70
2022/07/08 00:29:55;;;;;;;9.85;2.22;;;;;;;14.44;67.70;101893.25;5048188;28;20474;-70
2022/07/08 00:32:58;;;;;;;7.68;2.25;;;;;;;14.46;67.37;101893.19;5047944;28;20052;-70
2022/07/08 00:36:02;;;;;;;4.28;1.40;;;;;;;14.17;67.76;101888.34;5042559;28;20528;-71
2022/07/08 00:39:10;;;;;;;7.22;1.45;;;;;;;14.35;65.45;101897.16;5028965;28;20095;-70
2022/07/08 00:42:13;;;;;;;10.95;2.55;;;;;;;14.16;67.81;101894.50;5028794;28;20540;-70
2022/07/08 00:45:17;;;;;;;6.05;1.17;;;;;;;14.16;69.48;101899.75;5029049;28;20146;-71
2022/07/08 00:48:21;;;;;;;7.93;1.88;;;;;;;14.27;68.55;101901.91;5028326;28;20072;-70
2022/07/08 00:51:24;;;;;;;9.93;1.60;;;;;;;14.05;71.15;101907.31;5044542;28;20536;-70
2022/07/08 00:54:27;;;;;;;8.90;2.28;;;;;;;13.66;73.21;101900.25;5050331;28;20048;-71
2022/07/08 00:57:32;;;;;;;7.60;1.83;;;;;;;13.71;73.92;101903.50;5050103;28;20043;-69
2022/07/08 01:00:36;;;;;;;5.45;1.42;;;;;;;13.69;74.59;101905.38;5051380;28;20048;-70
2022/07/08 01:03:40;;;;;;;6.10;1.60;;;;;;;13.70;75.11;101907.06;5051480;28;20463;-70
2022/07/08 01:06:43;;;;;;;6.78;1.70;;;;;;;13.80;74.33;101911.94;5031152;28;20449;-70
2022/07/08 01:09:46;;;;;;;7.80;2.22;;;;;;;14.06;71.14;101905.53;5030486;28;20044;-70
2022/07/08 01:12:50;;;;;;;8.50;1.98;;;;;;;13.85;73.40;101904.72;5041703;28;20079;-70
2022/07/08 01:15:53;;;;;;;6.90;1.92;;;;;;;13.79;71.39;101904.97;5050168;28;20048;-71
2022/07/08 01:18:56;;;;;;;6.55;1.65;;;;;;;14.03;70.68;101919.66;5049939;28;20445;-70
2022/07/08 01:22:00;;;;;;;5.80;1.80;;;;;;;14.09;70.60;101919.38;5051139;28;20048;-70
2022/07/08 01:25:07;;;;;;;8.20;1.52;;;;;;;13.85;70.19;101916.09;5050626;28;20094;-70
2022/07/08 01:28:11;;;;;;;9.38;1.52;;;;;;;13.91;70.22;101915.81;5049736;28;20067;-71
2022/07/08 01:31:15;;;;;;;6.35;1.30;;;;;;;13.82;72.70;101925.88;5049718;28;20540;-71
2022/07/08 01:34:18;;;;;;;6.65;1.45;;;;;;;13.62;75.35;101919.69;5049005;28;20429;-71
2022/07/08 01:37:23;;;;;;;6.07;1.83;;;;;;;13.75;73.20;101920.00;5050000;28;20048;-70
2022/07/08 01:40:26;;;;;;;6.35;1.55;;;;;;;13.71;73.31;101924.53;5050811;28;20103;-70
2022/07/08 01:43:30;;;;;;;8.82;1.60;;;;;;;13.51;74.55;101927.19;5051307;28;20052;-70
2022/07/08 01:46:33;;;;;;;7.32;2.03;;;;;;;13.50;75.13;101930.75;5061953;28;20714;-70
2022/07/08 01:49:36;;;;;;;9.50;1.88;;;;;;;13.64;74.46;101932.78;5050493;28;20067;-70
2022/07/08 01:52:40;;;;;;;7.60;1.63;;;;;;;13.62;75.01;101929.34;5038409;28;20105;-71
2022/07/08 01:55:43;;;;;;;8.75;1.20;;;;;;;13.69;74.93;101936.06;5050891;28;20048;-70
2022/07/08 01:58:48;;;;;;;6.88;1.50;;;;;;;13.82;74.09;101933.75;5050922;28;20067;-70
2022/07/08 02:01:51;;;;;;;5.88;1.60;;;;;;;13.75;74.88;101943.66;5045714;28;20076;-70
2022/07/08 02:04:54;;;;;;;10.85;2.60;;;;;;;13.62;75.81;101940.69;5030930;28;20051;-70
2022/07/08 02:07:57;;;;;;;10.20;1.88;;;;;;;13.56;76.52;101940.13;5030459;28;20032;-70
2022/07/08 02:14:23;;;;;;;8.35;1.75;;;;;;;13.40;77.60;101950.41;5030482;28;20052;-70
2022/07/08 02:17:26;;;;;;;6.50;1.90;;;;;;;13.37;78.44;101956.66;5030010;28;20111;-70
2022/07/08 02:20:30;;;;;;;9.63;2.15;;;;;;;13.43;77.96;101955.53;5030069;28;20048;-70
2022/07/08 02:23:33;;;;;;;6.50;2.00;;;;;;;13.36;78.42;101961.97;5030518;28;20060;-70
2022/07/08 02:26:36;;;;;;;;;;;;;;;13.19;78.53;101960.00;5030667;28;20052;-70
2022/07/08 02:29:39;;;;;;;9.00;1.95;;;;;;;13.46;77.58;101960.66;4680723;28;10000745;-70
2022/07/08 02:32:44;;;;;;;12.32;2.97;;;;;;;13.63;76.22;101955.56;5047690;28;20094;-70
2022/07/08 02:35:49;;;;;;;7.43;2.05;;;;;;;13.76;75.06;101965.56;5013010;28;20127;-70
2022/07/08 02:38:53;;;;;;;8.60;1.77;;;;;;;13.78;75.21;101961.09;5035039;28;20175;-70
2022/07/08 02:41:57;;;;;;;9.55;1.60;;;;;;;13.44;75.95;101967.78;5034545;28;20044;-71
2022/07/08 02:45:03;;;;;;;6.35;1.90;;;;;;;13.44;75.51;101967.78;5039445;28;20118;-70
2022/07/08 02:48:07;;;;;;;5.35;1.45;;;;;;;13.38;75.67;101957.50;5027840;28;20069;-69
2022/07/08 02:51:13;;;;;;;7.53;1.65;;;;;;;13.01;77.08;101964.22;5027865;28;20087;-69
2022/07/08 02:54:18;;;;;;;6.85;1.73;;;;;;;12.71;78.26;101966.25;5027650;28;20047;-69
2022/07/08 02:57:23;;;;;;;6.47;1.77;;;;;;;12.68;78.50;101967.22;5015264;28;20060;-69
2022/07/08 03:00:28;;;;;;;7.82;1.85;;;;;;;12.74;76.96;101966.16;5043267;28;20125;-70
2022/07/08 03:03:31;;;;;;;7.07;1.60;;;;;;;13.00;75.51;101973.00;5046775;28;20052;-69
2022/07/08 03:06:37;;;;;;;6.47;1.70;;;;;;;12.76;77.80;101965.19;5046837;28;20532;-70
2022/07/08 03:09:41;;;;;;;9.55;2.63;;;;;;;12.89;77.85;101969.94;5047215;28;20512;-69
2022/07/08 03:12:45;;;;;;;5.80;1.27;;;;;;;12.64;78.67;101965.66;5046590;28;20460;-69
2022/07/08 03:15:51;;;;;;;9.93;1.73;;;;;;;12.69;78.37;101974.19;5034438;28;20052;-69
2022/07/08 03:18:55;;;;;;;5.55;1.58;;;;;;;12.65;79.08;101969.13;5034944;28;20122;-69
2022/07/08 03:21:59;;;;;;;9.55;1.92;;;;;;;12.64;77.94;101975.28;5047134;28;20461;-70
2022/07/08 03:25:04;;;;;;;9.35;1.50;;;;;;;12.71;76.54;101975.00;5046183;28;20245;-70
2022/07/08 03:28:10;;;;;;;4.50;1.33;;;;;;;12.86;76.00;101970.94;5047129;28;20089;-70
2022/07/08 03:31:16;;;;;;;10.52;1.63;;;;;;;12.99;75.50;101976.56;5006920;28;20120;-69
2022/07/08 03:34:19;;;;;;;6.90;1.23;;;;;;;13.07;75.31;101969.22;5016362;28;20522;-70
2022/07/08 03:37:23;;;;;;;4.57;1.17;;;;;;;13.05;75.04;101978.94;5025547;28;20048;-70
2022/07/08 03:43:51;;;;;;;5.28;1.48;;;;;;;13.39;73.68;101972.34;4986451;28;20419;-70
2022/07/08 03:46:54;;;;;;;7.97;1.40;;;;;;;13.31;73.17;101982.34;4986677;28;20731;-69
2022/07/08 03:49:58;;;;;;;8.25;1.45;;;;;;;13.28;73.36;101983.31;4987047;28;20061;-69
2022/07/08 03:53:01;;;;;;;6.05;1.23;;;;;;;13.45;72.86;101979.97;4987440;28;20609;-69
2022/07/08 03:56:05;;;;;;;7.72;1.50;;;;;;;13.36;75.01;101980.34;5008809;28;20104;-69
2022/07/08 03:59:09;;;;;;;9.43;1.83;;;;;;;13.15;76.73;101977.66;4986708;28;20053;-70
2022/07/08 04:02:13;;;;;;;12.27;1.80;;;;;;;13.35;75.38;101983.91;4986624;28;20077;-70
2022/07/08 04:05:17;;;;;;;9.52;1.58;;;;;;;13.37;75.25;101982.06;4986049;28;20157;-70
2022/07/08 04:08:21;;;;;;;6.03;1.48;;;;;;;13.21;76.55;101982.66;4986345;28;20104;-70
2022/07/08 04:11:25;;;;;;;4.93;1.33;;;;;;;13.06;78.02;101993.78;4986867;28;20076;-71
2022/07/08 04:14:29;;;;;;;11.73;2.15;;;;;;;12.93;79.09;101993.41;4987019;28;20546;-72
2022/07/08 04:17:35;;;;;;;8.38;2.20;;;;;;;12.92;79.06;101996.06;5000021;28;20053;-69
2022/07/08 04:20:37;;;;;;;6.32;1.58;;;;;;;12.79;79.37;101998.31;5007497;28;20068;-71
2022/07/08 04:23:41;;;;;;;15.55;2.53;;;;;;;12.84;79.18;102003.41;5010689;28;20049;-72
2022/07/08 04:26:46;;;;;;;9.10;1.67;;;;;;;12.87;78.52;102013.78;5011456;28;20057;-71
2022/07/08 04:29:50;;;;;;;7.25;2.00;;;;;;;12.88;78.44;102015.47;5039092;28;20115;-72
2022/07/08 04:32:55;;;;;;;7.07;1.73;;;;;;;12.75;78.92;102021.19;5052849;28;20425;-80
2022/07/08 04:36:00;;;;;;;8.55;1.85;;;;;;;12.85;78.39;102016.44;5052431;28;20063;-80
2022/07/08 04:39:04;;;;;;;5.43;1.48;;;;;;;13.04;78.07;102019.22;5051645;28;20099;-79
2022/07/08 04:42:08;;;;;;;6.07;1.38;;;;;;;13.03;77.49;102030.66;5050829;28;20055;-80
2022/07/08 04:45:13;;;;;;;7.15;1.63;;;;;;;12.94;78.54;102033.63;5036774;28;20568;-78
2022/07/08 04:48:17;;;;;;;7.30;1.80;;;;;;;12.86;79.17;102033.06;5018528;28;20513;-80
2022/07/08 04:51:23;;;;;;;9.20;1.52;;;;;;;12.83;79.49;102028.78;5031687;28;20179;-79
2022/07/08 04:54:29;;;;;;;7.97;1.77;;;;;;;12.91;79.05;102039.00;5031777;28;20041;-79
2022/07/08 04:57:33;;;;;;;9.30;1.90;;;;;;;12.93;78.35;102040.66;5031306;28;20489;-79
2022/07/08 05:00:36;;;;;;;8.85;1.45;;;;;;;13.28;76.57;102042.88;5031272;28;20164;-72
2022/07/08 05:03:40;;;;;;;11.77;2.42;;;;;;;13.21;76.47;102048.34;5030751;28;20521;-71
2022/07/08 05:06:43;;;;;;;9.57;2.05;;;;;;;13.26;75.89;102049.03;5030391;28;20067;-71
2022/07/08 05:09:46;;;;;;;9.80;2.63;;;;;;;13.04;76.58;102050.75;5030437;28;20110;-71
2022/07/08 05:12:50;;;;;;;8.02;1.50;;;;;;;13.25;76.24;102051.72;5030785;28;20537;-71
2022/07/08 05:15:54;;;;;;;6.13;1.63;;;;;;;13.50;75.75;102054.25;5030806;28;20048;-71
2022/07/08 05:19:00;;;;;;;7.95;1.58;;;;;;;13.53;75.90;102056.75;5031645;28;20528;-71
2022/07/08 05:22:08;;;;;;;10.23;1.33;;;;;;;13.45;76.21;102056.19;5030326;28;20437;-71
2022/07/08 05:25:13;;;;;;;11.98;1.60;;;;;;;13.83;74.32;102064.28;5030206;28;20383;-71
2022/07/08 05:28:16;;;;;;;7.30;1.95;;;;;;;13.76;74.31;102068.09;5049332;28;20044;-70
2022/07/08 05:31:22;;;;;;;8.75;1.23;;;;;;;13.60;74.16;102058.19;5049948;28;20139;-71
2022/07/08 05:34:26;;;;;;;6.88;1.25;;;;;;;13.77;73.30;102061.91;5049134;28;20040;-70
2022/07/08 05:37:30;;;;;;;6.28;1.20;;;;;;;13.70;72.05;102058.69;5035453;28;20115;-71
2022/07/08 05:40:36;;;;;;;4.95;1.30;;;;;;;13.82;70.35;102062.59;5030058;28;20047;-70
2022/07/08 05:43:40;;;;;;;8.85;2.58;;;;;;;14.05;69.50;102070.38;5030873;28;20099;-71
2022/07/08 05:46:43;;;;;;;6.82;1.95;;;;;;;14.15;68.59;102065.56;5029791;28;20040;-70
2022/07/08 05:49:46;;;;;;;7.28;1.50;;;;;;;14.38;66.92;102080.34;5029925;28;20102;-70
2022/07/08 05:52:51;;;;;;;6.20;1.38;;;;;;;14.50;65.73;102082.47;5029241;28;20083;-71
2022/07/08 05:55:57;;;;;;;6.38;1.58;;;;;;;14.29;64.16;102073.72;5031612;28;20131;-71
2022/07/08 05:59:00;;;;;;;5.38;1.00;;;;;;;14.39;64.08;102082.09;5050525;28;20413;-70
2022/07/08 06:02:05;;;;;;;9.68;1.80;;;;;;;14.22;64.41;102090.69;5038187;28;20106;-71
2022/07/08 06:05:09;;;;;;;5.70;1.33;;;;;;;14.54;63.74;102086.69;5049669;28;20600;-71
2022/07/08 06:08:13;;;;;;;9.10;1.92;;;;;;;14.26;64.79;102099.28;5050536;28;20099;-71
2022/07/08 06:11:16;;;;;;;6.95;1.23;;;;;;;14.43;64.14;102091.56;5038172;28;20083;-70
2022/07/08 06:14:20;;;;;;;7.18;1.67;;;;;;;14.69;61.79;102100.97;5049884;28;20520;-70
2022/07/08 06:17:24;;;;;;;6.95;1.60;;;;;;;14.55;62.15;102101.59;5049528;28;20048;-71
2022/07/08 06:20:27;;;;;;;5.18;1.35;;;;;;;14.36;62.60;102100.63;5036248;28;20048;-71
2022/07/08 06:23:31;;;;;;;5.82;1.20;;;;;;;14.28;61.98;102097.47;5029487;28;20052;-70
2022/07/08 06:26:36;;;;;;;10.13;1.60;;;;;;;14.37;61.98;102097.06;5016186;28;20499;-73
2022/07/08 06:29:39;;;;;;;6.18;1.20;;;;;;;14.74;61.46;102093.72;5029838;28;20887;-72
2022/07/08 06:32:43;;;;;;;8.05;1.50;;;;;;;14.71;61.14;102101.75;5028822;28;20048;-72
2022/07/08 06:35:48;;;;;;;8.20;1.67;;;;;;;14.83;60.86;102101.19;5051039;28;20104;-73
2022/07/08 06:38:53;;;;;;;5.75;1.42;;;;;;;15.04;60.10;102098.53;5029597;28;20044;-75
2022/07/08 06:41:57;;;;;;;8.68;1.67;;;;;;;15.06;59.63;102107.19;5030023;28;20047;-74
2022/07/08 06:45:02;;;;;;;9.35;1.58;;;;;;;14.97;59.00;102105.00;5028509;28;20095;-74
2022/07/08 06:48:05;;;;;;;4.35;1.02;;;;;;;15.39;58.17;102102.16;5034406;28;20071;-75
2022/07/08 06:51:10;;;;;;;5.13;1.50;;;;;;;15.08;59.02;102098.28;5048925;28;20075;-76
2022/07/08 06:57:35;;;;;;;6.85;1.27;;;;;;;15.35;57.23;102100.59;5020136;28;20509;-74
2022/07/08 07:00:38;;;;;;;6.63;1.20;;;;;;;15.02;57.39;102095.94;5029348;28;20148;-74
2022/07/08 07:03:44;;;;;;;6.45;1.20;;;;;;;15.30;56.01;102081.50;5036067;28;20048;-78
2022/07/08 07:06:47;;;;;;;6.72;1.23;;;;;;;15.28;57.00;102075.44;5049372;28;20062;-79
2022/07/08 07:09:50;;;;;;;10.32;2.35;;;;;;;15.02;57.62;102068.75;5049063;28;20107;-79
2022/07/08 07:12:58;;;;;;;8.13;1.58;;;;;;;15.24;58.24;102084.41;5049853;28;20123;-78
2022/07/08 07:16:01;;;;;;;8.70;1.52;;;;;;;15.47;57.20;102086.78;5048655;28;20095;-78
2022/07/08 07:19:04;;;;;;;5.13;0.80;;;;;;;15.80;56.40;102094.06;5049601;28;20106;-79
2022/07/08 07:22:10;;;;;;;9.43;1.23;;;;;;;15.69;55.83;102098.97;5049321;28;20052;-79
2022/07/08 07:25:14;;;;;;;6.80;1.20;;;;;;;15.42;56.01;102094.09;5049013;28;20520;-79
2022/07/08 07:28:17;;;;;;;6.55;1.00;;;;;;;15.63;55.17;102100.09;5049237;28;20051;-73
2022/07/08 07:31:21;;;;;;;8.35;1.83;;;;;;;15.62;55.65;102094.91;5039218;28;20485;-74
2022/07/08 07:34:24;;;;;;;6.25;1.15;;;;;;;15.83;55.94;102096.53;5029135;28;20565;-74
2022/07/08 07:37:27;;;;;;;5.55;1.02;;;;;;;15.27;56.46;102094.81;5029346;28;20418;-72
2022/07/08 07:40:30;;;;;;;7.50;1.30;;;;;;;15.30;57.21;102084.13;5028760;28;20767;-73
2022/07/08 07:43:34;;;;;;;8.02;1.45;;;;;;;15.43;55.95;102087.88;5027492;28;20249;-75
2022/07/08 07:46:37;;;;;;;10.15;1.40;;;;;;;15.53;55.89;102094.41;5044334;28;20576;-72
2022/07/08 07:49:41;;;;;;;9.20;1.77;;;;;;;15.38;55.45;102097.81;5047187;28;20048;-72
2022/07/08 07:52:44;;;;;;;7.90;1.67;;;;;;;15.61;56.27;102095.84;5035180;28;20051;-71
2022/07/08 07:55:47;;;;;;;7.82;1.30;;;;;;;15.51;55.32;102096.28;5047284;28;20090;-71
2022/07/08 07:58:51;;;;;;;9.85;2.15;;;;;;;15.75;55.85;102090.78;5047057;28;20098;-71
2022/07/08 08:01:54;;;;;;;7.60;1.30;;;;;;;16.06;57.09;102099.81;5048342;28;20052;-71
2022/07/08 08:04:57;;;;;;;7.60;1.50;;;;;;;16.01;55.16;102102.66;5059110;28;20437;-70
2022/07/08 08:08:01;;;;;;;8.23;1.55;;;;;;;16.23;55.75;102094.53;5048595;28;20121;-71
2022/07/08 08:11:04;;;;;;;6.47;1.48;;;;;;;16.45;55.02;102110.13;5048780;28;20048;-72
2022/07/08 08:14:08;;;;;;;7.78;1.48;;;;;;;16.43;52.91;102104.06;5048099;28;20044;-71
2022/07/08 08:17:11;;;;;;;6.95;1.20;;;;;;;16.39;53.58;102116.56;5048535;28;20599;-70
2022/07/08 08:20:15;;;;;;;11.60;2.08;;;;;;;16.47;53.04;102124.94;5036123;28;20090;-75
2022/07/08 08:23:21;;;;;;;6.45;1.40;;;;;;;15.93;54.67;102120.69;5048217;28;20044;-71
2022/07/08 08:26:25;;;;;;;6.18;1.20;;;;;;;15.75;55.18;102125.91;5047839;28;20040;-71
2022/07/08 08:29:28;;;;;;;7.25;1.40;;;;;;;16.26;56.05;102123.41;5047637;28;20084;-70
2022/07/08 08:32:32;;;;;;;8.02;1.10;;;;;;;16.54;53.54;102116.72;5048567;28;20187;-70
2022/07/08 08:35:36;;;;;;;7.90;1.45;;;;;;;16.73;53.58;102120.09;5048887;28;20509;-72
2022/07/08 08:38:39;;;;;;;7.22;1.58;;;;;;;17.14;52.78;102103.84;5047857;28;20524;-70
2022/07/08 08:41:42;;;;;;;8.18;1.95;;;;;;;17.51;52.23;102118.50;5047165;28;20102;-69
2022/07/08 08:44:49;;;;;;;9.45;1.65;;;;;;;17.33;51.37;102108.97;5047693;28;20048;-70
2022/07/08 08:47:54;;;;;;;7.30;1.88;;;;;;;16.94;52.06;102102.25;5035833;28;20156;-77
2022/07/08 08:51:02;;;;;;;9.60;1.50;;;;;;;16.49;54.17;102106.38;5047669;28;20148;-75
2022/07/08 08:54:09;;;;;;;8.93;1.77;;;;;;;16.31;54.63;102104.72;5047532;28;20525;-76
2022/07/08 08:57:14;;;;;;;5.68;1.52;;;;;;;16.41;54.67;102106.78;5048415;28;20044;-77
2022/07/08 09:00:34;;;;;;;8.00;1.58;;;;;;;16.43;53.55;102104.94;5048837;28;20047;-78
2022/07/08 09:03:38;;;;;;;7.72;2.90;;;;;;;16.57;52.64;102121.84;5047974;28;20067;-70
2022/07/08 09:06:41;;;;;;;7.45;1.67;;;;;;;16.60;53.78;102106.69;5048263;28;20110;-70
2022/07/08 09:09:45;;;;;;;4.25;1.10;;;;;;;16.67;53.04;102107.22;5049237;28;20079;-71
2022/07/08 09:13:03;;;;;;;6.50;1.58;;;;;;;16.86;52.19;102113.25;5031735;28;20190;-71
2022/07/08 09:16:07;;;;;;;6.20;1.70;;;;;;;16.90;53.69;102108.66;5032020;28;20076;-71
2022/07/08 09:19:13;;;;;;;6.85;1.33;;;;;;;17.21;53.45;102094.63;5032218;28;20103;-77
2022/07/08 09:22:21;;;;;;;5.30;1.50;;;;;;;17.11;51.29;102096.94;5032056;28;20044;-74
2022/07/08 09:25:25;;;;;;;8.50;1.42;;;;;;;17.21;53.19;102107.84;5026051;28;20068;-77
2022/07/08 09:28:40;;;;;;;7.90;2.15;;;;;;;17.20;50.88;102095.59;5051511;28;20036;-76
2022/07/08 09:31:42;;;;;;;6.80;1.40;;;;;;;17.12;50.68;102093.34;5051769;28;20048;-75
2022/07/08 09:34:47;;;;;;;7.55;1.33;;;;;;;17.05;50.65;102081.41;5051224;28;20075;-74
2022/07/08 09:37:51;;;;;;;6.05;1.73;;;;;;;17.30;51.09;102091.50;5049840;28;20051;-75
2022/07/08 09:40:58;;;;;;;8.68;1.33;;;;;;;17.50;50.42;102084.22;5049481;28;20040;-74
2022/07/08 09:44:01;;;;;;;5.63;2.00;;;;;;;17.57;50.45;102093.50;5049017;28;20048;-73
2022/07/08 09:47:12;;;;;;;6.57;1.50;;;;;;;17.72;50.73;102084.69;5049594;28;20044;-73
2022/07/08 09:50:16;;;;;;;11.48;1.70;;;;;;;17.73;50.32;102094.34;5037601;28;20141;-73
2022/07/08 09:53:23;;;;;;;5.53;1.25;;;;;;;17.53;49.95;102086.69;5049430;28;20051;-72
2022/07/08 09:56:28;;;;;;;9.93;1.50;;;;;;;17.46;50.49;102083.56;5050683;28;20405;-73
2022/07/08 09:59:34;;;;;;;6.60;1.42;;;;;;;17.40;51.26;102087.38;5049273;28;20051;-72
2022/07/08 10:02:38;;;;;;;5.28;1.25;;;;;;;17.40;50.02;102097.09;5060829;28;20160;-72
2022/07/08 10:05:43;;;;;;;5.18;1.27;;;;;;;17.70;49.40;102080.44;5049379;28;20166;-73
2022/07/08 10:08:46;;;;;;;8.80;1.20;;;;;;;17.98;50.13;102071.78;5038250;28;20475;-73
2022/07/08 10:11:50;;;;;;;6.70;1.63;;;;;;;18.26;50.37;102073.66;5029453;28;20529;-73
2022/07/08 10:14:56;;;;;;;7.80;1.60;;;;;;;18.33;49.05;102077.63;5029279;28;20473;-73
2022/07/08 10:18:24;;;;;;;7.07;1.30;;;;;;;18.15;49.87;102076.91;5029541;28;20510;-71
2022/07/08 10:21:32;;;;;;;6.15;1.38;;;;;;;18.45;49.13;102073.38;5029416;28;20067;-72
2022/07/08 10:24:39;;;;;;;5.00;1.70;;;;;;;18.03;48.80;102075.03;5029372;28;20059;-73
2022/07/08 10:27:42;;;;;;;8.55;1.90;;;;;;;18.18;48.88;102076.72;5029222;28;20529;-72
2022/07/08 10:30:51;;;;;;;6.85;1.70;;;;;;;18.29;49.80;102082.25;5030866;28;20080;-72
2022/07/08 10:34:02;;;;;;;7.25;2.08;;;;;;;18.19;49.42;102086.41;5009201;28;20468;-72
2022/07/08 10:37:06;;;;;;;8.25;1.92;;;;;;;18.15;49.55;102084.84;5016429;28;20545;-72
2022/07/08 10:40:10;;;;;;;10.07;1.73;;;;;;;18.10;49.13;102081.66;5029164;28;20044;-72
2022/07/08 10:43:19;;;;;;;6.97;1.50;;;;;;;18.56;48.63;102068.25;5028962;28;20533;-73
2022/07/08 10:46:26;;;;;;;5.90;1.80;;;;;;;18.57;46.60;102068.19;5028535;28;20095;-73
2022/07/08 10:49:40;;;;;;;7.40;1.40;;;;;;;18.47;45.56;102074.13;5027946;28;20094;-73
2022/07/08 10:52:45;;;;;;;6.45;1.52;;;;;;;18.82;47.31;102064.03;5027522;28;20068;-73
2022/07/08 10:55:49;;;;;;;6.68;1.60;;;;;;;19.21;48.52;102058.03;5028282;28;20090;-72
2022/07/08 10:59:14;;;;;;;11.43;2.53;;;;;;;19.59;49.05;102059.09;5029474;28;20553;-72
2022/07/08 11:02:19;;;;;;;8.40;2.13;;;;;;;19.39;45.47;102052.44;5028703;28;20114;-73
2022/07/08 11:05:39;;;;;;;6.35;1.40;;;;;;;19.12;46.61;102042.69;5021024;28;20529;-73
2022/07/08 11:09:00;;;;;;;4.93;1.45;;;;;;;18.97;45.87;102051.63;5014969;28;20049;-73
2022/07/08 11:12:04;;;;;;;6.57;1.25;;;;;;;19.21;46.65;102044.75;5029172;28;20057;-73
2022/07/08 11:15:12;;;;;;;5.72;1.58;;;;;;;19.37;47.75;102041.09;5029940;28;20554;-73
2022/07/08 11:18:24;;;;;;;4.57;1.40;;;;;;;19.70;48.39;102046.88;5029615;28;20132;-73
2022/07/08 11:21:27;;;;;;;6.82;1.20;;;;;;;19.67;45.78;102041.75;5009642;28;20077;-73
2022/07/08 11:24:34;;;;;;;4.38;1.13;;;;;;;19.47;45.63;102042.22;5010205;28;20110;-73
2022/07/08 11:27:38;;;;;;;8.35;1.63;;;;;;;19.39;44.94;102044.50;5010345;28;20049;-73
2022/07/08 11:30:43;;;;;;;6.03;1.60;;;;;;;19.44;44.92;102035.28;5024117;28;20813;-73
2022/07/08 11:33:47;;;;;;;5.80;1.50;;;;;;;19.61;46.29;102038.63;5028704;28;20113;-73
2022/07/08 11:37:01;;;;;;;6.20;1.60;;;;;;;19.55;44.54;102031.91;5029254;28;20045;-73
2022/07/08 11:40:05;;;;;;;;;;;;;;;19.66;46.41;102032.09;5029255;28;20044;-72
2022/07/08 11:43:21;;;;;;;6.18;1.67;;;;;;;19.89;44.85;102027.06;5029347;28;20533;-72
2022/07/08 11:46:24;;;;;;;7.43;1.50;;;;;;;19.74;44.18;102026.28;5029259;28;20119;-72
2022/07/08 11:49:27;;;;;;;8.60;2.15;;;;;;;20.09;45.27;102017.72;5028489;28;20047;-72
2022/07/08 11:52:31;;;;;;;8.10;1.83;;;;;;;20.30;44.94;102028.69;5027619;28;20521;-73
2022/07/08 11:55:44;;;;;;;8.63;2.25;;;;;;;20.32;44.16;102016.97;5015874;28;20047;-73
2022/07/08 11:58:49;;;;;;;5.70;1.33;;;;;;;20.28;44.46;102025.28;5016438;28;20057;-73
2022/07/08 12:01:53;;;;;;;6.22;1.75;;;;;;;20.46;44.75;102025.81;5028615;28;20056;-73
2022/07/08 12:05:00;;;;;;;4.93;1.88;;;;;;;20.13;45.00;102025.38;5028379;28;20044;-69
2022/07/08 12:08:11;;;;;;;7.38;1.58;;;;;;;20.47;45.87;102017.72;5028864;28;20505;-73
2022/07/08 12:11:18;;;;;;;6.90;1.55;;;;;;;20.69;46.32;102010.91;5028969;28;20064;-74
2022/07/08 12:14:23;;;;;;;4.90;1.30;;;;;;;20.90;45.09;102006.72;5028700;28;20052;-68
2022/07/08 12:17:28;;;;;;;26.25;7.95;;;;;;;21.20;46.15;102003.63;5038784;28;20717;-71
2022/07/08 12:20:36;;;;;;;7.40;1.75;;;;;;;20.80;42.95;102022.44;5048733;28;20051;-70
2022/07/08 12:23:43;;;;;;;19.25;4.63;;;;;;;20.70;44.59;102008.13;5048097;28;20536;-68
2022/07/08 12:27:02;;;;;;;15.55;4.50;;;;;;;20.77;43.93;102004.09;5049254;28;20052;-75
2022/07/08 12:30:07;;;;;;;8.43;3.08;;;;;;;21.08;43.95;101992.06;5048314;28;20106;-73
2022/07/08 12:33:10;;;;;;;17.33;4.68;;;;;;;21.20;44.34;101992.13;5027636;28;20047;-73
2022/07/08 12:36:28;;;;;;;5.97;1.58;;;;;;;21.11;43.45;101986.50;5027634;28;20084;-72
2022/07/08 12:39:33;;;;;;;7.15;1.45;;;;;;;21.06;43.03;101994.00;5029296;28;20167;-76
2022/07/08 12:42:40;;;;;;;17.23;5.45;;;;;;;21.18;44.46;101988.72;5028722;28;20411;-70
2022/07/08 12:45:44;;;;;;;5.00;1.48;;;;;;;21.69;43.46;101973.34;5019614;28;20047;-70
2022/07/08 12:48:47;;;;;;;7.10;1.70;;;;;;;22.03;43.11;101982.25;5031674;28;20040;-70
2022/07/08 12:51:51;;;;;;;8.93;2.38;;;;;;;22.27;42.83;101963.53;5031693;28;20525;-74
2022/07/08 12:54:54;;;;;;;5.38;1.50;;;;;;;22.12;41.67;101961.19;5031976;28;20464;-73
2022/07/08 12:58:48;;;;;;;12.18;3.83;;;;;;;22.41;41.48;101958.94;5032180;28;20052;-70
2022/07/08 13:01:52;;;;;;;6.05;2.38;;;;;;;22.75;42.62;101952.56;5031352;28;20095;-70
2022/07/08 13:04:58;;;;;;;11.90;3.20;;;;;;;22.65;42.04;101945.44;5016445;28;20686;-74
2022/07/08 13:08:08;;;;;;;11.75;3.30;;;;;;;23.10;41.24;101948.88;5051757;28;20091;-74
2022/07/08 13:11:17;;;;;;;10.40;3.28;;;;;;;23.26;40.79;101964.44;5051044;28;20676;-75
2022/07/08 13:14:22;;;;;;;8.43;2.17;;;;;;;23.21;39.82;101954.13;5043844;28;20052;-76
2022/07/08 13:17:26;;;;;;;7.30;2.10;;;;;;;23.03;40.21;101954.81;5031584;28;20552;-73
2022/07/08 13:20:30;;;;;;;8.30;2.00;;;;;;;23.52;40.96;101953.41;5030935;28;20052;-67
2022/07/08 13:23:34;;;;;;;6.18;1.83;;;;;;;22.98;40.66;101961.38;5032192;28;20132;-67
2022/07/08 13:26:39;;;;;;;5.72;2.10;;;;;;;23.62;40.18;101951.63;5031993;28;20100;-65
2022/07/08 13:29:42;;;;;;;5.30;1.77;;;;;;;23.83;38.66;101941.78;5031085;28;20602;-67
2022/07/08 13:32:46;;;;;;;6.68;2.38;;;;;;;24.07;38.85;101941.50;5041321;28;20127;-66
2022/07/08 13:35:49;;;;;;;5.60;2.03;;;;;;;24.05;39.55;101937.28;5048721;28;20039;-66
2022/07/08 13:38:52;;;;;;;5.88;2.00;;;;;;;24.13;38.43;101932.97;5031494;28;20810;-66
2022/07/08 13:41:56;;;;;;;7.57;2.03;;;;;;;24.79;37.34;101936.97;5031116;28;20072;-66
2022/07/08 13:44:59;;;;;;;5.75;1.65;;;;;;;24.61;39.20;101933.28;5051143;28;20052;-66
2022/07/08 13:48:04;;;;;;;7.03;1.90;;;;;;;24.17;38.73;101930.03;5030977;28;20120;-67
2022/07/08 13:51:09;;;;;;;7.85;1.52;;;;;;;24.83;36.97;101936.56;5030240;28;20600;-67
2022/07/08 13:54:13;;;;;;;5.28;1.52;;;;;;;25.22;37.39;101923.22;5036491;28;20044;-67
2022/07/08 13:57:16;;;;;;;6.88;1.75;;;;;;;26.35;35.24;101921.47;5049509;28;20086;-66
2022/07/08 14:05:03;;;;;;;4.38;1.92;;;;;;;26.08;35.58;101920.50;5051350;28;20183;-67
2022/07/08 14:08:06;;;;;;;5.20;1.90;;;;;;;25.31;37.53;101936.75;5050866;28;20517;-68
2022/07/08 14:11:10;;;;;;;6.68;1.77;;;;;;;25.27;35.67;101931.69;5049774;28;20167;-67
2022/07/08 14:14:15;;;;;;;7.60;2.58;;;;;;;24.75;38.86;101922.19;5050170;28;20086;-68
2022/07/08 14:17:19;;;;;;;5.90;1.50;;;;;;;24.35;38.09;101934.59;5050362;28;20464;-67
2022/07/08 14:20:22;;;;;;;5.85;2.42;;;;;;;25.95;34.61;101925.34;5049288;28;20087;-69
2022/07/08 14:23:25;;;;;;;5.85;1.73;;;;;;;24.48;38.05;101918.34;5050489;28;20075;-68
2022/07/08 14:26:29;;;;;;;6.43;1.70;;;;;;;27.48;32.82;101923.63;5047294;28;20051;-66
2022/07/08 14:29:34;;;;;;;4.78;1.52;;;;;;;26.20;34.75;101923.84;5048725;28;20063;-71
2022/07/08 14:32:38;;;;;;;5.50;1.70;;;;;;;25.68;36.41;101929.59;5042046;28;20544;-67
2022/07/08 14:35:45;;;;;;;7.47;1.77;;;;;;;26.60;34.50;101914.59;5017004;28;20056;-68